sensor_id;sensor_type;location;lat;lon;timestamp;pressure;altitude;pressure_sealevel;temperature;humidity
72677;BME280;60755;51.374;10.662;2023-03-18T00:00:19;96618.28;;;8.10;68.50
72677;BME280;60755;51.374;10.662;2023-03-18T00:02:47;96619.72;;;8.18;68.38
72677;BME280;60755;51.374;10.662;2023-03-18T00:05:16;96611.56;;;8.31;67.98
72677;BME280;60755;51.374;10.662;2023-03-18T00:07:44;96613.81;;;8.39;67.79
72677;BME280;60755;51.374;10.662;2023-03-18T00:10:12;96608.03;;;8.37;68.04
72677;BME280;60755;51.374;10.662;2023-03-18T00:12:41;96614.97;;;8.32;67.89
72677;BME280;60755;51.374;10.662;2023-03-18T00:15:11;96619.63;;;8.13;68.87
72677;BME280;60755;51.374;10.662;2023-03-18T00:17:39;96622.50;;;8.00;70.94
72677;BME280;60755;51.374;10.662;2023-03-18T00:20:07;96620.72;;;7.89;72.30
72677;BME280;60755;51.374;10.662;2023-03-18T00:22:37;96618.47;;;7.80;72.04
72677;BME280;60755;51.374;10.662;2023-03-18T00:25:06;96624.09;;;7.72;72.19
72677;BME280;60755;51.374;10.662;2023-03-18T00:27:34;96626.69;;;7.72;71.30
72677;BME280;60755;51.374;10.662;2023-03-18T00:30:03;96625.97;;;7.77;71.82
72677;BME280;60755;51.374;10.662;2023-03-18T00:32:30;96618.13;;;7.89;70.69
72677;BME280;60755;51.374;10.662;2023-03-18T00:34:59;96622.97;;;7.97;71.36
72677;BME280;60755;51.374;10.662;2023-03-18T00:37:27;96619.34;;;7.98;71.00
72677;BME280;60755;51.374;10.662;2023-03-18T00:40:00;96625.03;;;7.95;70.54
72677;BME280;60755;51.374;10.662;2023-03-18T00:42:32;96634.72;;;7.94;71.87
72677;BME280;60755;51.374;10.662;2023-03-18T00:45:05;96628.53;;;8.00;70.85
72677;BME280;60755;51.374;10.662;2023-03-18T00:47:33;96627.00;;;8.16;69.47
72677;BME280;60755;51.374;10.662;2023-03-18T00:50:00;96631.91;;;8.12;70.91
72677;BME280;60755;51.374;10.662;2023-03-18T00:52:28;96641.81;;;8.10;70.91
72677;BME280;60755;51.374;10.662;2023-03-18T00:54:55;96646.16;;;8.05;71.68
72677;BME280;60755;51.374;10.662;2023-03-18T00:57:24;96650.72;;;7.98;71.78
72677;BME280;60755;51.374;10.662;2023-03-18T00:59:51;96643.91;;;7.97;71.84
72677;BME280;60755;51.374;10.662;2023-03-18T01:02:19;96640.03;;;7.99;71.75
72677;BME280;60755;51.374;10.662;2023-03-18T01:04:48;96643.00;;;8.03;71.42
72677;BME280;60755;51.374;10.662;2023-03-18T01:07:16;96646.59;;;8.02;70.80
72677;BME280;60755;51.374;10.662;2023-03-18T01:09:44;96647.19;;;8.04;70.73
72677;BME280;60755;51.374;10.662;2023-03-18T01:12:12;96651.13;;;8.18;71.57
72677;BME280;60755;51.374;10.662;2023-03-18T01:14:41;96655.72;;;8.11;70.87
72677;BME280;60755;51.374;10.662;2023-03-18T01:17:09;96649.56;;;8.05;70.09
72677;BME280;60755;51.374;10.662;2023-03-18T01:19:37;96651.28;;;8.00;71.18
72677;BME280;60755;51.374;10.662;2023-03-18T01:22:04;96645.03;;;8.01;71.39
72677;BME280;60755;51.374;10.662;2023-03-18T01:24:38;96659.13;;;8.00;70.34
72677;BME280;60755;51.374;10.662;2023-03-18T01:27:05;96652.78;;;7.96;70.09
72677;BME280;60755;51.374;10.662;2023-03-18T01:29:35;96658.94;;;7.90;72.16
72677;BME280;60755;51.374;10.662;2023-03-18T01:32:06;96651.34;;;7.88;71.72
72677;BME280;60755;51.374;10.662;2023-03-18T01:34:35;96652.50;;;7.80;72.22
72677;BME280;60755;51.374;10.662;2023-03-18T01:37:02;96655.78;;;7.88;71.36
72677;BME280;60755;51.374;10.662;2023-03-18T01:39:33;96655.84;;;7.93;71.91
72677;BME280;60755;51.374;10.662;2023-03-18T01:42:03;96661.66;;;7.95;71.20
72677;BME280;60755;51.374;10.662;2023-03-18T01:44:33;96657.91;;;7.91;72.57
72677;BME280;60755;51.374;10.662;2023-03-18T01:47:00;96660.41;;;7.85;71.99
72677;BME280;60755;51.374;10.662;2023-03-18T01:49:33;96668.50;;;7.84;71.38
72677;BME280;60755;51.374;10.662;2023-03-18T01:52:05;96656.22;;;7.84;72.07
72677;BME280;60755;51.374;10.662;2023-03-18T01:54:36;96654.06;;;7.81;72.54
72677;BME280;60755;51.374;10.662;2023-03-18T01:57:06;96660.22;;;7.87;71.75
72677;BME280;60755;51.374;10.662;2023-03-18T01:59:35;96657.44;;;7.94;72.22
72677;BME280;60755;51.374;10.662;2023-03-18T02:02:05;96660.72;;;8.01;72.61
72677;BME280;60755;51.374;10.662;2023-03-18T02:04:40;96658.69;;;8.03;73.11
72677;BME280;60755;51.374;10.662;2023-03-18T02:07:13;96656.81;;;8.15;71.45
72677;BME280;60755;51.374;10.662;2023-03-18T02:09:42;96658.09;;;8.12;72.99
72677;BME280;60755;51.374;10.662;2023-03-18T02:12:10;96657.06;;;8.13;71.43
72677;BME280;60755;51.374;10.662;2023-03-18T02:14:39;96656.81;;;8.15;71.63
72677;BME280;60755;51.374;10.662;2023-03-18T02:17:10;96658.03;;;8.36;71.74
72677;BME280;60755;51.374;10.662;2023-03-18T02:19:51;96659.84;;;8.35;70.99
72677;BME280;60755;51.374;10.662;2023-03-18T02:22:25;96661.84;;;8.33;71.85
72677;BME280;60755;51.374;10.662;2023-03-18T02:25:10;96664.47;;;8.33;70.41
72677;BME280;60755;51.374;10.662;2023-03-18T02:27:42;96662.16;;;8.20;72.27
72677;BME280;60755;51.374;10.662;2023-03-18T02:30:13;96654.31;;;8.20;71.02
72677;BME280;60755;51.374;10.662;2023-03-18T02:32:46;96663.50;;;8.23;72.57
72677;BME280;60755;51.374;10.662;2023-03-18T02:35:14;96661.25;;;8.14;71.92
72677;BME280;60755;51.374;10.662;2023-03-18T02:37:41;96673.97;;;8.23;72.79
72677;BME280;60755;51.374;10.662;2023-03-18T02:40:15;96663.19;;;8.19;71.97
72677;BME280;60755;51.374;10.662;2023-03-18T02:42:45;96659.19;;;8.17;72.21
72677;BME280;60755;51.374;10.662;2023-03-18T02:45:24;96672.88;;;8.07;72.41
72677;BME280;60755;51.374;10.662;2023-03-18T02:48:16;96677.25;;;7.90;73.36
72677;BME280;60755;51.374;10.662;2023-03-18T02:50:45;96678.72;;;7.85;74.66
72677;BME280;60755;51.374;10.662;2023-03-18T02:53:14;96683.88;;;7.80;73.84
72677;BME280;60755;51.374;10.662;2023-03-18T02:55:43;96686.06;;;7.72;75.03
72677;BME280;60755;51.374;10.662;2023-03-18T02:58:12;96688.19;;;7.75;75.80
72677;BME280;60755;51.374;10.662;2023-03-18T03:00:40;96679.81;;;8.13;74.33
72677;BME280;60755;51.374;10.662;2023-03-18T03:03:07;96673.97;;;8.23;74.55
72677;BME280;60755;51.374;10.662;2023-03-18T03:05:34;96673.97;;;8.23;73.87
72677;BME280;60755;51.374;10.662;2023-03-18T03:08:03;96680.31;;;8.38;74.46
72677;BME280;60755;51.374;10.662;2023-03-18T03:10:34;96673.00;;;8.40;73.01
72677;BME280;60755;51.374;10.662;2023-03-18T03:13:02;96683.59;;;8.34;73.33
72677;BME280;60755;51.374;10.662;2023-03-18T03:15:31;96689.72;;;8.51;73.06
72677;BME280;60755;51.374;10.662;2023-03-18T03:17:59;96686.44;;;8.44;73.54
72677;BME280;60755;51.374;10.662;2023-03-18T03:20:26;96690.22;;;8.36;72.95
72677;BME280;60755;51.374;10.662;2023-03-18T03:22:54;96688.03;;;8.33;74.40
72677;BME280;60755;51.374;10.662;2023-03-18T03:25:22;96685.66;;;8.44;74.70
72677;BME280;60755;51.374;10.662;2023-03-18T03:27:52;96691.44;;;8.34;74.40
72677;BME280;60755;51.374;10.662;2023-03-18T03:30:20;96692.47;;;8.45;72.97
72677;BME280;60755;51.374;10.662;2023-03-18T03:32:49;96691.56;;;8.39;74.69
72677;BME280;60755;51.374;10.662;2023-03-18T03:35:17;96692.91;;;8.41;74.52
72677;BME280;60755;51.374;10.662;2023-03-18T03:37:46;96691.25;;;8.35;74.51
72677;BME280;60755;51.374;10.662;2023-03-18T03:40:17;96698.38;;;8.52;74.06
72677;BME280;60755;51.374;10.662;2023-03-18T03:42:46;96706.13;;;8.47;75.21
72677;BME280;60755;51.374;10.662;2023-03-18T03:45:15;96707.94;;;8.46;76.09
72677;BME280;60755;51.374;10.662;2023-03-18T03:47:44;96705.19;;;8.53;74.88
72677;BME280;60755;51.374;10.662;2023-03-18T03:50:15;96707.16;;;8.46;75.12
72677;BME280;60755;51.374;10.662;2023-03-18T03:52:43;96703.09;;;8.38;75.79
72677;BME280;60755;51.374;10.662;2023-03-18T03:55:13;96711.03;;;8.31;76.27
72677;BME280;60755;51.374;10.662;2023-03-18T03:57:40;96708.91;;;8.28;75.54
72677;BME280;60755;51.374;10.662;2023-03-18T04:00:10;96708.34;;;8.26;76.41
72677;BME280;60755;51.374;10.662;2023-03-18T04:02:46;96721.44;;;8.26;76.11
72677;BME280;60755;51.374;10.662;2023-03-18T04:05:18;96719.25;;;8.23;75.56
72677;BME280;60755;51.374;10.662;2023-03-18T04:07:46;96720.41;;;8.27;76.85
72677;BME280;60755;51.374;10.662;2023-03-18T04:10:19;96729.72;;;8.23;77.68
72677;BME280;60755;51.374;10.662;2023-03-18T04:12:47;96731.31;;;8.24;77.64
72677;BME280;60755;51.374;10.662;2023-03-18T04:15:16;96726.19;;;8.29;76.61
72677;BME280;60755;51.374;10.662;2023-03-18T04:17:46;96724.59;;;8.28;76.36
72677;BME280;60755;51.374;10.662;2023-03-18T04:20:18;96724.03;;;8.38;75.59
72677;BME280;60755;51.374;10.662;2023-03-18T04:22:46;96722.06;;;8.33;76.04
72677;BME280;60755;51.374;10.662;2023-03-18T04:25:16;96723.00;;;8.27;76.80
72677;BME280;60755;51.374;10.662;2023-03-18T04:27:45;96726.88;;;8.25;76.42
72677;BME280;60755;51.374;10.662;2023-03-18T04:30:15;96729.16;;;8.21;77.26
72677;BME280;60755;51.374;10.662;2023-03-18T04:33:01;96721.78;;;8.18;76.58
72677;BME280;60755;51.374;10.662;2023-03-18T04:35:31;96727.03;;;8.18;77.24
72677;BME280;60755;51.374;10.662;2023-03-18T04:37:59;96730.09;;;8.15;76.73
72677;BME280;60755;51.374;10.662;2023-03-18T04:40:27;96723.38;;;8.19;76.64
72677;BME280;60755;51.374;10.662;2023-03-18T04:42:55;96726.56;;;8.21;77.47
72677;BME280;60755;51.374;10.662;2023-03-18T04:45:25;96723.16;;;8.21;76.39
72677;BME280;60755;51.374;10.662;2023-03-18T04:47:56;96723.38;;;8.19;77.28
72677;BME280;60755;51.374;10.662;2023-03-18T04:50:24;96722.78;;;8.17;76.63
72677;BME280;60755;51.374;10.662;2023-03-18T04:52:54;96720.19;;;8.17;77.02
72677;BME280;60755;51.374;10.662;2023-03-18T04:55:26;96717.25;;;8.13;77.23
72677;BME280;60755;51.374;10.662;2023-03-18T04:57:54;96722.59;;;8.07;77.31
72677;BME280;60755;51.374;10.662;2023-03-18T05:00:23;96720.47;;;8.04;77.38
72677;BME280;60755;51.374;10.662;2023-03-18T05:02:58;96721.69;;;8.01;77.33
72677;BME280;60755;51.374;10.662;2023-03-18T05:05:27;96713.53;;;7.98;77.85
72677;BME280;60755;51.374;10.662;2023-03-18T05:07:55;96722.97;;;7.99;78.96
72677;BME280;60755;51.374;10.662;2023-03-18T05:10:23;96720.81;;;7.96;77.45
72677;BME280;60755;51.374;10.662;2023-03-18T05:12:50;96710.34;;;7.96;78.82
72677;BME280;60755;51.374;10.662;2023-03-18T05:15:26;96724.47;;;7.95;79.57
72677;BME280;60755;51.374;10.662;2023-03-18T05:17:56;96718.19;;;7.96;78.62
72677;BME280;60755;51.374;10.662;2023-03-18T05:20:25;96720.81;;;7.96;80.57
72677;BME280;60755;51.374;10.662;2023-03-18T05:22:58;96722.16;;;7.98;79.47
72677;BME280;60755;51.374;10.662;2023-03-18T05:25:42;96719.88;;;8.02;79.24
72677;BME280;60755;51.374;10.662;2023-03-18T05:28:09;96717.25;;;8.02;80.01
72677;BME280;60755;51.374;10.662;2023-03-18T05:30:45;96720.69;;;8.02;79.03
72677;BME280;60755;51.374;10.662;2023-03-18T05:33:14;96716.34;;;8.08;80.74
72677;BME280;60755;51.374;10.662;2023-03-18T05:35:49;96731.28;;;7.96;80.81
72677;BME280;60755;51.374;10.662;2023-03-18T05:38:21;96730.59;;;7.89;82.00
72677;BME280;60755;51.374;10.662;2023-03-18T05:40:49;96729.47;;;7.84;82.63
72677;BME280;60755;51.374;10.662;2023-03-18T05:43:21;96732.31;;;7.83;82.95
72677;BME280;60755;51.374;10.662;2023-03-18T05:45:56;96737.91;;;7.87;81.72
72677;BME280;60755;51.374;10.662;2023-03-18T05:48:40;96738.78;;;7.92;82.60
72677;BME280;60755;51.374;10.662;2023-03-18T05:51:08;96735.56;;;8.02;82.82
72677;BME280;60755;51.374;10.662;2023-03-18T05:53:38;96732.59;;;8.22;81.34
72677;BME280;60755;51.374;10.662;2023-03-18T05:56:19;96739.84;;;8.31;79.65
72677;BME280;60755;51.374;10.662;2023-03-18T05:58:50;96733.22;;;8.40;78.50
72677;BME280;60755;51.374;10.662;2023-03-18T06:01:39;96734.22;;;8.51;78.31
72677;BME280;60755;51.374;10.662;2023-03-18T06:04:06;96726.13;;;8.53;77.73
72677;BME280;60755;51.374;10.662;2023-03-18T06:06:34;96722.38;;;8.77;77.96
72677;BME280;60755;51.374;10.662;2023-03-18T06:09:06;96729.53;;;8.82;78.04
72677;BME280;60755;51.374;10.662;2023-03-18T06:11:34;96726.50;;;8.73;76.80
72677;BME280;60755;51.374;10.662;2023-03-18T06:14:03;96730.34;;;8.82;76.71
72677;BME280;60755;51.374;10.662;2023-03-18T06:16:30;96737.31;;;8.77;78.00
72677;BME280;60755;51.374;10.662;2023-03-18T06:18:59;96739.03;;;9.33;76.49
72677;BME280;60755;51.374;10.662;2023-03-18T06:21:26;96748.44;;;9.85;73.59
72677;BME280;60755;51.374;10.662;2023-03-18T06:23:54;96761.78;;;9.83;76.71
72677;BME280;60755;51.374;10.662;2023-03-18T06:26:23;96757.50;;;9.77;76.49
72677;BME280;60755;51.374;10.662;2023-03-18T06:28:50;96763.22;;;9.91;76.83
72677;BME280;60755;51.374;10.662;2023-03-18T06:31:18;96755.56;;;10.50;75.60
72677;BME280;60755;51.374;10.662;2023-03-18T06:33:47;96748.88;;;10.86;74.13
72677;BME280;60755;51.374;10.662;2023-03-18T06:36:15;96748.59;;;11.46;71.92
72677;BME280;60755;51.374;10.662;2023-03-18T06:38:47;96744.16;;;11.52;71.85
72677;BME280;60755;51.374;10.662;2023-03-18T06:41:14;96742.03;;;11.49;72.14
72677;BME280;60755;51.374;10.662;2023-03-18T06:44:09;96749.63;;;13.43;67.01
72677;BME280;60755;51.374;10.662;2023-03-18T06:46:38;96738.00;;;14.55;63.29
72677;BME280;60755;51.374;10.662;2023-03-18T06:49:07;96745.28;;;14.09;63.55
72677;BME280;60755;51.374;10.662;2023-03-18T06:51:40;96748.31;;;15.40;59.79
72677;BME280;60755;51.374;10.662;2023-03-18T06:54:08;96741.44;;;16.69;56.20
72677;BME280;60755;51.374;10.662;2023-03-18T06:56:36;96738.66;;;17.63;54.46
72677;BME280;60755;51.374;10.662;2023-03-18T06:59:13;96747.13;;;17.51;54.29
72677;BME280;60755;51.374;10.662;2023-03-18T07:01:40;96749.91;;;18.06;51.17
72677;BME280;60755;51.374;10.662;2023-03-18T07:04:08;96750.50;;;17.57;52.89
72677;BME280;60755;51.374;10.662;2023-03-18T07:06:36;96759.81;;;17.87;51.57
72677;BME280;60755;51.374;10.662;2023-03-18T07:09:04;96767.81;;;17.68;53.11
72677;BME280;60755;51.374;10.662;2023-03-18T07:11:31;96772.97;;;18.38;51.17
72677;BME280;60755;51.374;10.662;2023-03-18T07:14:05;96781.72;;;18.11;51.04
72677;BME280;60755;51.374;10.662;2023-03-18T07:16:36;96787.88;;;17.60;54.02
72677;BME280;60755;51.374;10.662;2023-03-18T07:19:03;96788.00;;;17.18;54.51
72677;BME280;60755;51.374;10.662;2023-03-18T07:21:31;96790.50;;;17.28;53.50
72677;BME280;60755;51.374;10.662;2023-03-18T07:23:58;96800.28;;;17.14;54.08
72677;BME280;60755;51.374;10.662;2023-03-18T07:26:26;96802.63;;;17.15;55.99
72677;BME280;60755;51.374;10.662;2023-03-18T07:28:54;96793.63;;;16.49;56.01
72677;BME280;60755;51.374;10.662;2023-03-18T07:31:21;96790.81;;;15.20;59.82
72677;BME280;60755;51.374;10.662;2023-03-18T07:33:51;96810.22;;;14.50;63.19
72677;BME280;60755;51.374;10.662;2023-03-18T07:36:18;96806.34;;;14.07;64.78
72677;BME280;60755;51.374;10.662;2023-03-18T07:38:45;96808.69;;;14.19;64.04
72677;BME280;60755;51.374;10.662;2023-03-18T07:41:12;96810.59;;;13.93;66.01
72677;BME280;60755;51.374;10.662;2023-03-18T07:43:40;96818.50;;;13.98;65.32
72677;BME280;60755;51.374;10.662;2023-03-18T07:46:08;96814.75;;;14.30;64.90
72677;BME280;60755;51.374;10.662;2023-03-18T07:48:35;96817.09;;;14.41;64.80
72677;BME280;60755;51.374;10.662;2023-03-18T07:51:04;96816.56;;;14.49;63.05
72677;BME280;60755;51.374;10.662;2023-03-18T07:53:31;96817.38;;;14.35;65.50
72677;BME280;60755;51.374;10.662;2023-03-18T07:55:59;96830.50;;;14.70;63.48
72677;BME280;60755;51.374;10.662;2023-03-18T07:58:26;96827.91;;;14.55;64.00
72677;BME280;60755;51.374;10.662;2023-03-18T08:00:54;96826.88;;;14.41;65.18
72677;BME280;60755;51.374;10.662;2023-03-18T08:03:21;96833.50;;;14.48;64.19
72677;BME280;60755;51.374;10.662;2023-03-18T08:05:48;96825.00;;;14.57;63.33
72677;BME280;60755;51.374;10.662;2023-03-18T08:08:17;96834.97;;;14.80;63.45
72677;BME280;60755;51.374;10.662;2023-03-18T08:10:44;96830.16;;;13.82;66.79
72677;BME280;60755;51.374;10.662;2023-03-18T08:13:11;96832.50;;;13.53;68.40
72677;BME280;60755;51.374;10.662;2023-03-18T08:15:39;96838.84;;;13.87;68.00
72677;BME280;60755;51.374;10.662;2023-03-18T08:18:06;96832.00;;;13.76;67.01
72677;BME280;60755;51.374;10.662;2023-03-18T08:20:34;96834.63;;;13.81;66.74
72677;BME280;60755;51.374;10.662;2023-03-18T08:23:01;96836.22;;;13.52;68.42
72677;BME280;60755;51.374;10.662;2023-03-18T08:25:31;96836.22;;;13.97;67.77
72677;BME280;60755;51.374;10.662;2023-03-18T08:27:58;96839.66;;;13.88;69.21
72677;BME280;60755;51.374;10.662;2023-03-18T08:30:25;96841.75;;;13.70;69.72
72677;BME280;60755;51.374;10.662;2023-03-18T08:32:53;96848.28;;;13.22;71.18
72677;BME280;60755;51.374;10.662;2023-03-18T08:35:22;96839.66;;;13.78;70.11
72677;BME280;60755;51.374;10.662;2023-03-18T08:37:49;96841.50;;;13.62;70.03
72677;BME280;60755;51.374;10.662;2023-03-18T08:40:17;96842.03;;;13.69;70.47
72677;BME280;60755;51.374;10.662;2023-03-18T08:42:46;96840.44;;;13.88;69.37
72677;BME280;60755;51.374;10.662;2023-03-18T08:45:14;96844.13;;;13.87;70.45
72677;BME280;60755;51.374;10.662;2023-03-18T08:47:41;96847.31;;;13.69;70.56
72677;BME280;60755;51.374;10.662;2023-03-18T08:50:10;96847.03;;;14.06;71.55
72677;BME280;60755;51.374;10.662;2023-03-18T08:52:38;96846.78;;;13.82;70.34
72677;BME280;60755;51.374;10.662;2023-03-18T08:55:07;96852.59;;;13.89;70.41
72677;BME280;60755;51.374;10.662;2023-03-18T08:57:34;96847.31;;;13.89;70.91
72677;BME280;60755;51.374;10.662;2023-03-18T09:00:04;96852.59;;;13.69;69.25
72677;BME280;60755;51.374;10.662;2023-03-18T09:02:32;96858.66;;;13.85;70.09
72677;BME280;60755;51.374;10.662;2023-03-18T09:04:59;96847.31;;;13.49;70.62
72677;BME280;60755;51.374;10.662;2023-03-18T09:07:26;96861.06;;;13.81;70.32
72677;BME280;60755;51.374;10.662;2023-03-18T09:09:54;96848.34;;;13.78;70.82
72677;BME280;60755;51.374;10.662;2023-03-18T09:12:21;96859.97;;;13.87;70.20
72677;BME280;60755;51.374;10.662;2023-03-18T09:14:49;96862.59;;;14.18;69.43
72677;BME280;60755;51.374;10.662;2023-03-18T09:17:18;96858.34;;;14.27;69.57
72677;BME280;60755;51.374;10.662;2023-03-18T09:19:46;96857.84;;;14.20;69.64
72677;BME280;60755;51.374;10.662;2023-03-18T09:22:13;96857.84;;;14.25;68.22
72677;BME280;60755;51.374;10.662;2023-03-18T09:24:40;96854.69;;;14.28;68.46
72677;BME280;60755;51.374;10.662;2023-03-18T09:27:08;96841.44;;;14.38;68.11
72677;BME280;60755;51.374;10.662;2023-03-18T09:29:35;96848.28;;;14.54;70.49
72677;BME280;60755;51.374;10.662;2023-03-18T09:32:02;96844.25;;;14.67;69.06
72677;BME280;60755;51.374;10.662;2023-03-18T09:34:32;96844.59;;;14.50;68.14
72677;BME280;60755;51.374;10.662;2023-03-18T09:36:59;96838.50;;;14.50;68.88
72677;BME280;60755;51.374;10.662;2023-03-18T09:39:26;96835.81;;;14.65;68.80
72677;BME280;60755;51.374;10.662;2023-03-18T09:42:06;96840.59;;;14.58;67.21
72677;BME280;60755;51.374;10.662;2023-03-18T09:44:36;96837.72;;;14.54;68.16
72677;BME280;60755;51.374;10.662;2023-03-18T09:47:19;96847.72;;;14.68;68.32
72677;BME280;60755;51.374;10.662;2023-03-18T09:50:06;96841.59;;;14.77;67.82
72677;BME280;60755;51.374;10.662;2023-03-18T09:52:40;96843.69;;;14.80;67.20
72677;BME280;60755;51.374;10.662;2023-03-18T09:55:19;96845.03;;;14.78;67.26
72677;BME280;60755;51.374;10.662;2023-03-18T09:57:49;96845.75;;;14.94;68.26
72677;BME280;60755;51.374;10.662;2023-03-18T10:00:19;96838.63;;;14.89;68.30
72677;BME280;60755;51.374;10.662;2023-03-18T10:02:50;96837.56;;;14.90;67.14
72677;BME280;60755;51.374;10.662;2023-03-18T10:05:24;96839.03;;;15.17;66.63
72677;BME280;60755;51.374;10.662;2023-03-18T10:07:56;96834.88;;;15.00;65.88
72677;BME280;60755;51.374;10.662;2023-03-18T10:10:29;96849.19;;;14.94;66.29
72677;BME280;60755;51.374;10.662;2023-03-18T10:13:06;96849.69;;;15.01;64.99
72677;BME280;60755;51.374;10.662;2023-03-18T10:15:40;96843.22;;;15.23;63.96
72677;BME280;60755;51.374;10.662;2023-03-18T10:18:11;96846.38;;;15.25;64.28
72677;BME280;60755;51.374;10.662;2023-03-18T10:20:56;96845.84;;;15.23;64.29
72677;BME280;60755;51.374;10.662;2023-03-18T10:23:33;96847.41;;;15.29;64.40
72677;BME280;60755;51.374;10.662;2023-03-18T10:26:04;96849.84;;;15.20;62.91
72677;BME280;60755;51.374;10.662;2023-03-18T10:31:49;96858.00;;;15.29;63.24
72677;BME280;60755;51.374;10.662;2023-03-18T10:34:22;96853.69;;;15.38;63.44
72677;BME280;60755;51.374;10.662;2023-03-18T10:37:01;96859.38;;;15.60;62.98
72677;BME280;60755;51.374;10.662;2023-03-18T10:39:32;96853.59;;;15.58;63.25
72677;BME280;60755;51.374;10.662;2023-03-18T10:42:11;96850.31;;;15.72;61.35
72677;BME280;60755;51.374;10.662;2023-03-18T10:44:42;96860.28;;;15.01;63.37
72677;BME280;60755;51.374;10.662;2023-03-18T10:47:13;96849.16;;;15.49;62.37
72677;BME280;60755;51.374;10.662;2023-03-18T10:49:49;96864.97;;;15.64;62.51
72677;BME280;60755;51.374;10.662;2023-03-18T10:52:30;96863.09;;;15.59;62.35
72677;BME280;60755;51.374;10.662;2023-03-18T10:54:59;96862.53;;;15.73;63.07
72677;BME280;60755;51.374;10.662;2023-03-18T10:57:26;96865.56;;;15.51;62.01
72677;BME280;60755;51.374;10.662;2023-03-18T10:59:54;96860.97;;;15.66;63.88
72677;BME280;60755;51.374;10.662;2023-03-18T11:02:24;96863.44;;;15.87;61.60
72677;BME280;60755;51.374;10.662;2023-03-18T11:04:58;96847.91;;;15.80;61.02
72677;BME280;60755;51.374;10.662;2023-03-18T11:07:30;96865.69;;;15.75;60.77
72677;BME280;60755;51.374;10.662;2023-03-18T11:10:11;96868.28;;;15.80;60.27
72677;BME280;60755;51.374;10.662;2023-03-18T11:12:39;96860.25;;;15.90;61.72
72677;BME280;60755;51.374;10.662;2023-03-18T11:15:10;96858.72;;;15.84;59.97
72677;BME280;60755;51.374;10.662;2023-03-18T11:17:39;96865.03;;;15.88;60.73
72677;BME280;60755;51.374;10.662;2023-03-18T11:20:18;96864.44;;;15.96;60.96
72677;BME280;60755;51.374;10.662;2023-03-18T11:22:49;96861.00;;;15.95;59.47
72677;BME280;60755;51.374;10.662;2023-03-18T11:25:19;96854.94;;;16.19;59.78
72677;BME280;60755;51.374;10.662;2023-03-18T11:27:50;96851.88;;;16.36;59.72
72677;BME280;60755;51.374;10.662;2023-03-18T11:30:20;96866.75;;;16.37;58.56
72677;BME280;60755;51.374;10.662;2023-03-18T11:32:53;96868.53;;;16.41;59.38
72677;BME280;60755;51.374;10.662;2023-03-18T11:35:23;96865.59;;;16.43;57.71
72677;BME280;60755;51.374;10.662;2023-03-18T11:37:52;96865.00;;;16.22;57.36
72677;BME280;60755;51.374;10.662;2023-03-18T11:40:25;96851.38;;;16.34;57.18
72677;BME280;60755;51.374;10.662;2023-03-18T11:42:54;96852.63;;;16.41;58.90
72677;BME280;60755;51.374;10.662;2023-03-18T11:45:33;96858.81;;;16.32;58.59
72677;BME280;60755;51.374;10.662;2023-03-18T11:48:01;96850.38;;;16.30;57.32
72677;BME280;60755;51.374;10.662;2023-03-18T11:50:37;96855.38;;;15.73;58.26
72677;BME280;60755;51.374;10.662;2023-03-18T11:53:12;96853.78;;;16.01;59.30
72677;BME280;60755;51.374;10.662;2023-03-18T11:55:46;96859.94;;;16.26;58.63
72677;BME280;60755;51.374;10.662;2023-03-18T11:58:33;96852.22;;;16.00;57.18
72677;BME280;60755;51.374;10.662;2023-03-18T12:01:11;96853.31;;;15.94;57.91
72677;BME280;60755;51.374;10.662;2023-03-18T12:04:06;96850.22;;;16.45;58.06
72677;BME280;60755;51.374;10.662;2023-03-18T12:06:43;96848.66;;;16.39;55.87
72677;BME280;60755;51.374;10.662;2023-03-18T12:09:22;96844.72;;;16.07;56.63
72677;BME280;60755;51.374;10.662;2023-03-18T12:12:07;96854.31;;;16.32;57.02
72677;BME280;60755;51.374;10.662;2023-03-18T12:14:42;96852.91;;;16.11;56.29
72677;BME280;60755;51.374;10.662;2023-03-18T12:17:24;96847.63;;;15.82;55.75
72677;BME280;60755;51.374;10.662;2023-03-18T12:20:12;96847.25;;;16.22;56.73
72677;BME280;60755;51.374;10.662;2023-03-18T12:22:52;96843.72;;;16.56;55.56
72677;BME280;60755;51.374;10.662;2023-03-18T12:25:50;96854.16;;;16.95;55.03
72677;BME280;60755;51.374;10.662;2023-03-18T12:28:28;96842.34;;;16.35;55.87
72677;BME280;60755;51.374;10.662;2023-03-18T12:31:05;96842.34;;;16.35;56.59
72677;BME280;60755;51.374;10.662;2023-03-18T12:33:48;96834.81;;;16.71;56.89
72677;BME280;60755;51.374;10.662;2023-03-18T12:36:26;96839.13;;;17.28;56.25
72677;BME280;60755;51.374;10.662;2023-03-18T12:39:33;96832.13;;;16.95;55.23
72677;BME280;60755;51.374;10.662;2023-03-18T12:42:09;96833.56;;;16.63;55.10
72677;BME280;60755;51.374;10.662;2023-03-18T12:44:57;96839.91;;;17.10;56.28
72677;BME280;60755;51.374;10.662;2023-03-18T12:47:31;96840.25;;;17.22;53.26
72677;BME280;60755;51.374;10.662;2023-03-18T12:50:01;96835.09;;;16.93;54.54
72677;BME280;60755;51.374;10.662;2023-03-18T12:52:35;96830.28;;;17.14;53.59
72677;BME280;60755;51.374;10.662;2023-03-18T12:55:11;96830.91;;;17.06;53.18
72677;BME280;60755;51.374;10.662;2023-03-18T12:57:45;96829.00;;;17.12;53.03
72677;BME280;60755;51.374;10.662;2023-03-18T13:00:20;96829.25;;;17.48;52.45
72677;BME280;60755;51.374;10.662;2023-03-18T13:02:59;96827.47;;;17.24;52.63
72677;BME280;60755;51.374;10.662;2023-03-18T13:05:35;96829.19;;;17.15;53.31
72677;BME280;60755;51.374;10.662;2023-03-18T13:08:21;96818.88;;;17.32;53.79
72677;BME280;60755;51.374;10.662;2023-03-18T13:10:56;96825.25;;;17.31;53.24
72677;BME280;60755;51.374;10.662;2023-03-18T13:13:29;96819.09;;;17.17;55.65
72677;BME280;60755;51.374;10.662;2023-03-18T13:16:00;96814.97;;;17.06;54.41
72677;BME280;60755;51.374;10.662;2023-03-18T13:18:32;96818.94;;;17.09;54.47